createdAt,value
2017-12-10T00:00:58.409Z,3.21
2017-12-10T00:01:43.772Z,3.13
2017-12-10T00:02:43.769Z,3.08
2017-12-10T00:03:43.764Z,3.1
2017-12-10T00:04:43.836Z,3.06
2017-12-10T00:05:43.834Z,3.1
2017-12-10T00:06:43.822Z,3.23
2017-12-10T00:07:43.840Z,3.11
2017-12-10T00:08:43.850Z,2.99
2017-12-10T00:09:43.867Z,3.17
2017-12-10T00:10:58.553Z,3.06
2017-12-10T00:11:43.894Z,3.06
2017-12-10T00:13:44.044Z,3.05
2017-12-10T00:14:43.934Z,3.03
2017-12-10T00:15:43.687Z,3.06
2017-12-10T00:16:43.973Z,3.03
2017-12-10T00:17:43.955Z,3.11
2017-12-10T00:18:44.022Z,3.08
2017-12-10T00:19:44.036Z,3.15
2017-12-10T00:20:44.024Z,3.23
2017-12-10T00:21:44.042Z,3.18
2017-12-10T00:22:44.130Z,3.1
2017-12-10T00:23:44.074Z,3.1
2017-12-10T00:24:44.094Z,3.13
2017-12-10T00:25:43.832Z,3.13
2017-12-10T00:26:44.131Z,3.15
2017-12-10T00:27:44.123Z,3.18
2017-12-10T00:28:58.789Z,3.08
2017-12-10T00:29:44.155Z,3.17
2017-12-10T00:30:44.171Z,3.14
2017-12-10T00:31:44.176Z,3.15
2017-12-10T00:32:44.296Z,3.17
2017-12-10T00:33:58.609Z,3.21
2017-12-10T00:35:43.986Z,3.2
2017-12-10T00:36:58.664Z,3.05
2017-12-10T00:37:44.253Z,3.05
2017-12-10T00:38:44.295Z,3.08
2017-12-10T00:40:44.310Z,3.05
2017-12-10T00:41:44.331Z,2.95
2017-12-10T00:42:44.353Z,3
2017-12-10T00:43:44.360Z,3
2017-12-10T00:44:59.043Z,3.03
2017-12-10T00:45:44.400Z,3.03
2017-12-10T00:46:44.401Z,2.99
2017-12-10T00:47:44.414Z,2.99
2017-12-10T00:48:44.456Z,3.08
2017-12-10T00:49:44.195Z,3.02
2017-12-10T00:50:44.445Z,2.99
2017-12-10T00:52:44.490Z,2.82
2017-12-10T00:53:44.487Z,2.74
2017-12-10T00:54:44.524Z,2.78
2017-12-10T00:55:44.529Z,2.72
2017-12-10T00:56:44.540Z,2.79
2017-12-10T00:57:44.294Z,2.81
2017-12-10T00:58:44.605Z,2.81
2017-12-10T00:59:59.241Z,2.74
2017-12-10T01:00:44.591Z,2.79
2017-12-10T01:01:44.630Z,2.75
2017-12-10T01:02:44.635Z,2.81
2017-12-10T01:03:44.408Z,2.87
2017-12-10T01:04:44.670Z,2.84
2017-12-10T01:05:44.677Z,2.85
2017-12-10T01:06:44.438Z,2.82
2017-12-10T01:07:44.428Z,2.82
2017-12-10T01:08:44.756Z,2.79
2017-12-10T01:09:44.713Z,2.72
2017-12-10T01:10:44.743Z,2.61
2017-12-10T01:11:44.511Z,2.63
2017-12-10T01:12:44.794Z,2.61
2017-12-10T01:13:44.811Z,2.57
2017-12-10T01:14:44.812Z,2.48
2017-12-10T01:15:44.831Z,2.48
2017-12-10T01:16:44.835Z,2.42
2017-12-10T01:17:44.835Z,2.35
2017-12-10T01:18:44.869Z,2.36
2017-12-10T01:19:44.858Z,2.42
2017-12-10T01:20:44.909Z,2.41
2017-12-10T01:21:44.907Z,2.49
2017-12-10T01:22:44.904Z,2.41
2017-12-10T01:24:44.938Z,2.45
2017-12-10T01:25:44.711Z,2.42
2017-12-10T01:26:44.979Z,2.38
2017-12-10T01:27:44.995Z,2.39
2017-12-10T01:28:45.040Z,2.46
2017-12-10T01:29:45.047Z,2.43
2017-12-10T01:30:45.057Z,2.34
2017-12-10T01:31:59.703Z,2.43
2017-12-10T01:32:59.726Z,2.38
2017-12-10T01:33:45.096Z,2.42
2017-12-10T01:34:59.511Z,2.35
2017-12-10T01:35:45.120Z,2.53
2017-12-10T01:36:45.103Z,2.39
2017-12-10T01:37:45.146Z,2.35
2017-12-10T01:38:45.149Z,2.45
2017-12-10T01:39:45.183Z,2.49
2017-12-10T01:40:45.164Z,2.45
2017-12-10T01:41:45.176Z,2.49
2017-12-10T01:42:44.958Z,2.49
2017-12-10T01:43:45.228Z,2.52
2017-12-10T01:44:45.285Z,2.56
2017-12-10T01:45:44.979Z,2.48
2017-12-10T01:46:45.300Z,2.49
2017-12-10T01:47:59.944Z,2.6
2017-12-10T01:48:45.311Z,2.59
2017-12-10T01:49:45.331Z,2.56
2017-12-10T01:50:45.342Z,2.6
2017-12-10T01:51:45.338Z,2.53
2017-12-10T01:52:45.352Z,2.6
2017-12-10T01:53:45.379Z,2.64
2017-12-10T01:55:00.026Z,2.63
2017-12-10T01:55:45.388Z,2.64
2017-12-10T01:56:45.390Z,2.6
2017-12-10T01:57:45.440Z,2.6
2017-12-10T01:58:45.432Z,2.57
2017-12-10T01:59:45.423Z,2.52
2017-12-10T02:00:45.219Z,2.57
2017-12-10T02:01:45.583Z,2.52
2017-12-10T02:02:45.475Z,2.59
2017-12-10T02:03:59.912Z,2.52
2017-12-10T02:04:45.539Z,2.56
2017-12-10T02:05:45.557Z,2.52
2017-12-10T02:06:45.530Z,2.52
2017-12-10T02:07:45.580Z,2.59
2017-12-10T02:09:00.247Z,2.57
2017-12-10T02:09:45.651Z,2.57
2017-12-10T02:10:45.624Z,2.52
2017-12-10T02:11:45.632Z,2.53
2017-12-10T02:12:45.450Z,2.46
2017-12-10T02:13:45.401Z,2.59
2017-12-10T02:15:45.686Z,2.59
2017-12-10T02:16:45.689Z,2.43
2017-12-10T02:17:45.451Z,2.46
2017-12-10T02:18:45.700Z,2.54
2017-12-10T02:20:00.405Z,2.54
2017-12-10T02:21:00.403Z,2.48
2017-12-10T02:21:45.788Z,2.46
2017-12-10T02:22:45.509Z,2.46
2017-12-10T02:23:45.777Z,2.48
2017-12-10T02:24:45.800Z,2.43
2017-12-10T02:25:45.799Z,2.53
2017-12-10T02:26:45.585Z,2.52
2017-12-10T02:27:45.856Z,2.48
2017-12-10T02:28:45.870Z,2.49
2017-12-10T02:29:45.880Z,2.38
2017-12-10T02:30:45.893Z,2.48
2017-12-10T02:31:45.899Z,2.48
2017-12-10T02:32:45.919Z,2.45
2017-12-10T02:33:45.936Z,2.46
2017-12-10T02:35:45.966Z,2.31
2017-12-10T02:36:45.977Z,2.41
2017-12-10T02:38:00.656Z,2.35
2017-12-10T02:38:45.988Z,2.38
2017-12-10T02:39:46.039Z,2.45
2017-12-10T02:40:46.052Z,2.34
2017-12-10T02:41:46.042Z,2.36
2017-12-10T02:42:46.085Z,2.41
2017-12-10T02:43:46.075Z,2.39
2017-12-10T02:44:46.076Z,2.43
2017-12-10T02:45:46.116Z,2.39
2017-12-10T02:46:46.095Z,2.53
2017-12-10T02:47:46.137Z,2.53
2017-12-10T02:50:46.183Z,2.42
2017-12-10T02:51:46.190Z,2.41
2017-12-10T02:52:45.956Z,2.46
2017-12-10T02:53:46.219Z,2.43
2017-12-10T02:54:46.221Z,2.42
2017-12-10T02:55:46.245Z,2.35
2017-12-10T02:56:46.255Z,2.28
2017-12-10T02:57:46.265Z,2.28
2017-12-10T02:59:00.938Z,2.31
2017-12-10T02:59:46.275Z,2.34
2017-12-10T03:00:46.300Z,2.31
2017-12-10T03:01:46.331Z,2.2
2017-12-10T03:02:46.361Z,2.2
2017-12-10T03:03:46.356Z,2.23
2017-12-10T03:04:46.387Z,2.09
2017-12-10T03:05:46.387Z,2.14
2017-12-10T03:07:01.064Z,2.09
2017-12-10T03:07:46.407Z,2.12
2017-12-10T03:09:46.436Z,2.16
2017-12-10T03:10:46.201Z,2.1
2017-12-10T03:12:01.135Z,2.02
2017-12-10T03:12:46.241Z,2.02
2017-12-10T03:13:46.492Z,2.02
2017-12-10T03:14:46.251Z,1.95
2017-12-10T03:15:46.543Z,2.02
2017-12-10T03:16:46.276Z,1.93
2017-12-10T03:17:46.572Z,1.99
2017-12-10T03:19:46.565Z,2.02
2017-12-10T03:21:01.261Z,2.02
2017-12-10T03:23:46.371Z,1.87
2017-12-10T03:24:46.649Z,1.84
2017-12-10T03:25:46.685Z,1.9
2017-12-10T03:27:01.346Z,1.81
2017-12-10T03:27:46.719Z,1.86
2017-12-10T03:28:46.462Z,2
2017-12-10T03:29:46.460Z,1.86
2017-12-10T03:30:46.738Z,1.86
2017-12-10T03:31:46.740Z,1.81
2017-12-10T03:32:46.830Z,2.05
2017-12-10T03:34:46.785Z,1.88
2017-12-10T03:35:46.817Z,1.88
2017-12-10T03:36:46.827Z,1.88
2017-12-10T03:37:46.845Z,1.83
2017-12-10T03:39:01.510Z,1.83
2017-12-10T03:39:46.862Z,1.79
2017-12-10T03:40:46.853Z,1.79
2017-12-10T03:42:01.549Z,1.76
2017-12-10T03:42:46.666Z,1.86
2017-12-10T03:44:46.906Z,1.87
2017-12-10T03:46:01.596Z,1.83
2017-12-10T03:46:46.960Z,1.83
2017-12-10T03:48:01.621Z,1.79
2017-12-10T03:48:46.998Z,1.88
2017-12-10T03:49:46.728Z,1.77
2017-12-10T03:50:47.030Z,1.73
2017-12-10T03:51:47.004Z,1.76
2017-12-10T03:52:47.063Z,1.86
2017-12-10T03:53:47.068Z,1.86
2017-12-10T03:55:01.740Z,1.83
2017-12-10T03:55:47.078Z,1.79
2017-12-10T03:56:47.108Z,1.68
2017-12-10T03:57:46.849Z,1.7
2017-12-10T03:58:47.122Z,1.68
2017-12-10T03:59:47.137Z,1.72
2017-12-10T04:00:47.127Z,1.68
2017-12-10T04:01:47.164Z,1.73
2017-12-10T04:02:47.185Z,1.69
2017-12-10T04:04:01.862Z,1.63
2017-12-10T04:04:47.276Z,1.77
2017-12-10T04:05:47.231Z,1.77
2017-12-10T04:06:46.707Z,1.68
2017-12-10T04:07:46.984Z,1.76
2017-12-10T04:09:01.927Z,1.77
2017-12-10T04:10:01.927Z,1.72
2017-12-10T04:10:47.352Z,1.69
2017-12-10T04:11:47.323Z,1.65
2017-12-10T04:13:47.353Z,1.55
2017-12-10T04:14:47.361Z,1.58
2017-12-10T04:15:47.374Z,1.66
2017-12-10T04:16:47.387Z,1.63
2017-12-10T04:17:47.407Z,1.54
2017-12-10T04:18:47.160Z,1.58
2017-12-10T04:19:47.156Z,1.55
2017-12-10T04:20:47.436Z,1.58
2017-12-10T04:21:47.437Z,1.62
2017-12-10T04:22:47.459Z,1.6
2017-12-10T04:23:47.443Z,1.58
2017-12-10T04:24:47.495Z,1.62
2017-12-10T04:25:47.224Z,1.48
2017-12-10T04:26:47.269Z,1.42
2017-12-10T04:28:02.195Z,1.42
2017-12-10T04:29:47.555Z,1.44
2017-12-10T04:30:47.583Z,1.37
2017-12-10T04:31:47.571Z,1.33
2017-12-10T04:32:47.587Z,1.34
2017-12-10T04:33:47.599Z,1.32
2017-12-10T04:34:47.609Z,1.32
2017-12-10T04:35:47.629Z,1.41
2017-12-10T04:36:47.648Z,1.36
2017-12-10T04:37:47.666Z,1.32
2017-12-10T04:39:02.343Z,1.44
2017-12-10T04:39:47.709Z,1.29
2017-12-10T04:40:47.685Z,1.4
2017-12-10T04:42:02.377Z,1.41
2017-12-10T04:43:47.737Z,1.51
2017-12-10T04:44:47.483Z,1.62
2017-12-10T04:45:47.761Z,1.68
2017-12-10T04:46:47.779Z,1.59
2017-12-10T04:47:47.790Z,1.54
2017-12-10T04:48:47.786Z,1.54
2017-12-10T04:50:02.472Z,1.59
2017-12-10T04:50:47.853Z,1.63
2017-12-10T04:51:47.836Z,1.58
2017-12-10T04:52:47.874Z,1.65
2017-12-10T04:53:47.877Z,1.62
2017-12-10T04:54:47.891Z,1.6
2017-12-10T04:55:47.873Z,1.68
2017-12-10T04:56:47.900Z,1.66
2017-12-10T04:58:02.609Z,1.65
2017-12-10T04:58:47.936Z,1.55
2017-12-10T04:59:47.701Z,1.58
2017-12-10T05:00:47.727Z,1.66
2017-12-10T05:01:47.985Z,1.65
2017-12-10T05:02:47.996Z,1.68
2017-12-10T05:03:48.022Z,1.66
2017-12-10T05:04:48.044Z,1.66
2017-12-10T05:05:48.054Z,1.69
2017-12-10T05:06:48.111Z,1.65
2017-12-10T05:07:48.071Z,1.68
2017-12-10T05:08:48.061Z,1.7
2017-12-10T05:09:48.117Z,1.59
2017-12-10T05:12:48.115Z,1.63
2017-12-10T05:14:02.558Z,1.63
2017-12-10T05:14:48.159Z,1.79
2017-12-10T05:15:48.203Z,1.65
2017-12-10T05:16:48.204Z,1.68
2017-12-10T05:17:48.223Z,1.62
2017-12-10T05:18:48.195Z,1.63
2017-12-10T05:19:48.212Z,1.62
2017-12-10T05:21:02.895Z,1.63
2017-12-10T05:21:48.228Z,1.58
2017-12-10T05:22:48.297Z,1.72
2017-12-10T05:23:48.273Z,1.69
2017-12-10T05:24:48.292Z,1.7
2017-12-10T05:25:48.300Z,1.65
2017-12-10T05:26:48.297Z,1.69
2017-12-10T05:27:48.347Z,1.66
2017-12-10T05:28:48.347Z,1.65
2017-12-10T05:30:02.766Z,1.66
2017-12-10T05:30:48.392Z,1.62
2017-12-10T05:31:48.372Z,1.63
2017-12-10T05:34:48.450Z,1.68
2017-12-10T05:35:48.444Z,1.65
2017-12-10T05:36:48.448Z,1.65
2017-12-10T05:37:48.485Z,1.7
2017-12-10T05:38:48.486Z,1.65
2017-12-10T05:39:48.559Z,1.58
2017-12-10T05:40:48.522Z,1.68
2017-12-10T05:41:48.253Z,1.54
2017-12-10T05:42:48.295Z,1.54
2017-12-10T05:43:48.571Z,1.59
2017-12-10T05:45:03.238Z,1.58
2017-12-10T05:46:03.237Z,1.55
2017-12-10T05:46:48.575Z,1.54
2017-12-10T05:47:48.669Z,1.63
2017-12-10T05:48:48.620Z,1.54
2017-12-10T05:49:48.656Z,1.54
2017-12-10T05:50:48.670Z,1.59
2017-12-10T05:51:48.648Z,1.6
2017-12-10T05:52:48.672Z,1.58
2017-12-10T05:53:48.676Z,1.44
2017-12-10T05:54:48.707Z,1.33
2017-12-10T05:55:48.711Z,1.41
2017-12-10T05:56:48.454Z,1.37
2017-12-10T05:57:48.770Z,1.36
2017-12-10T05:58:48.764Z,1.37
2017-12-10T05:59:48.520Z,1.44
2017-12-10T06:00:48.794Z,1.42
2017-12-10T06:01:48.816Z,1.32
2017-12-10T06:02:48.819Z,1.36
2017-12-10T06:04:03.496Z,1.34
2017-12-10T06:04:48.862Z,1.44
2017-12-10T06:05:48.866Z,1.32
2017-12-10T06:06:48.897Z,1.32
2017-12-10T06:07:48.893Z,1.44
2017-12-10T06:09:48.916Z,1.44
2017-12-10T06:10:48.926Z,1.62
2017-12-10T06:11:48.933Z,1.44
2017-12-10T06:12:48.948Z,1.51
2017-12-10T06:13:48.969Z,1.47
2017-12-10T06:14:48.974Z,1.54
2017-12-10T06:16:03.664Z,1.48
2017-12-10T06:17:03.680Z,1.58
2017-12-10T06:17:49.019Z,1.6
2017-12-10T06:18:49.042Z,1.55
2017-12-10T06:19:49.047Z,1.66
2017-12-10T06:23:49.101Z,1.54
2017-12-10T06:24:49.095Z,1.6
2017-12-10T06:25:49.131Z,1.63
2017-12-10T06:26:49.138Z,1.58
2017-12-10T06:27:49.290Z,1.59
2017-12-10T06:28:49.205Z,1.58
2017-12-10T06:29:49.200Z,1.6
2017-12-10T06:30:49.178Z,1.51
2017-12-10T06:31:49.229Z,1.52
2017-12-10T06:33:49.253Z,1.63
2017-12-10T06:34:49.257Z,1.6
2017-12-10T06:36:49.262Z,1.54
2017-12-10T06:37:49.289Z,1.6
2017-12-10T06:38:49.305Z,1.54
2017-12-10T06:39:49.291Z,1.51
2017-12-10T06:40:49.335Z,1.63
2017-12-10T06:41:49.355Z,1.55
2017-12-10T06:43:49.376Z,1.65
2017-12-10T06:44:49.468Z,1.58
2017-12-10T06:45:49.403Z,1.63
2017-12-10T06:46:49.393Z,1.54
2017-12-10T06:47:49.432Z,1.55
2017-12-10T06:49:04.112Z,1.63
2017-12-10T06:49:49.452Z,1.6
2017-12-10T06:51:04.119Z,1.55
2017-12-10T06:51:49.459Z,1.54
2017-12-10T06:52:49.498Z,1.58
2017-12-10T06:53:49.505Z,1.58
2017-12-10T06:54:49.533Z,1.54
2017-12-10T06:55:49.563Z,1.66
2017-12-10T06:56:49.571Z,1.54
2017-12-10T06:57:49.582Z,1.59
2017-12-10T06:59:49.589Z,1.6
2017-12-10T07:00:49.604Z,1.6
2017-12-10T07:01:49.599Z,1.54
2017-12-10T07:02:49.364Z,1.6
2017-12-10T07:03:49.628Z,1.55
2017-12-10T07:05:04.333Z,1.45
2017-12-10T07:06:04.326Z,1.52
2017-12-10T07:06:49.670Z,1.55
2017-12-10T07:07:49.709Z,1.54
2017-12-10T07:08:49.709Z,1.62
2017-12-10T07:09:49.715Z,1.62
2017-12-10T07:10:49.739Z,1.7
2017-12-10T07:11:49.771Z,1.66
2017-12-10T07:12:49.760Z,1.62
2017-12-10T07:13:49.782Z,1.68
2017-12-10T07:14:49.817Z,1.58
2017-12-10T07:15:49.828Z,1.58
2017-12-10T07:16:49.806Z,1.58
2017-12-10T07:17:49.846Z,1.63
2017-12-10T07:18:49.603Z,1.66
2017-12-10T07:20:04.271Z,1.72
2017-12-10T07:20:49.875Z,1.65
2017-12-10T07:21:49.875Z,1.63
2017-12-10T07:22:49.896Z,1.62
2017-12-10T07:23:49.944Z,1.63
2017-12-10T07:24:49.940Z,1.58
2017-12-10T07:25:49.947Z,1.51
2017-12-10T07:26:49.958Z,1.65
2017-12-10T07:27:49.997Z,1.72
2017-12-10T07:28:50.029Z,1.68
2017-12-10T07:30:50.037Z,1.76
2017-12-10T07:31:50.021Z,1.77
2017-12-10T07:32:50.068Z,1.76
2017-12-10T07:33:50.048Z,1.66
2017-12-10T07:34:50.063Z,1.69
2017-12-10T07:35:50.097Z,1.79
2017-12-10T07:36:50.087Z,1.65
2017-12-10T07:37:50.123Z,1.77
2017-12-10T07:38:49.609Z,1.79
2017-12-10T07:39:49.885Z,1.79
2017-12-10T07:40:50.159Z,1.72
2017-12-10T07:41:50.151Z,1.7
2017-12-10T07:42:50.184Z,1.76
2017-12-10T07:44:04.842Z,1.79
2017-12-10T07:44:49.949Z,1.73
2017-12-10T07:45:50.218Z,1.73
2017-12-10T07:46:50.235Z,1.87
2017-12-10T07:47:50.246Z,1.83
2017-12-10T07:48:50.257Z,1.8
2017-12-10T07:49:50.258Z,1.73
2017-12-10T07:50:50.029Z,1.73
2017-12-10T07:52:04.960Z,1.76
2017-12-10T07:52:50.322Z,1.76
2017-12-10T07:53:50.346Z,1.86
2017-12-10T07:54:50.321Z,1.79
2017-12-10T07:55:50.374Z,1.81
2017-12-10T07:56:50.350Z,1.86
2017-12-10T07:57:50.379Z,1.86
2017-12-10T07:58:50.416Z,1.86
2017-12-10T07:59:50.391Z,1.88
2017-12-10T08:00:50.430Z,1.81
2017-12-10T08:01:50.196Z,1.86
2017-12-10T08:02:50.444Z,1.84
2017-12-10T08:03:50.463Z,1.87
2017-12-10T08:05:05.138Z,1.95
2017-12-10T08:05:50.513Z,1.87
2017-12-10T08:08:05.197Z,1.83
2017-12-10T08:10:05.202Z,1.98
2017-12-10T08:10:50.563Z,1.87
2017-12-10T08:11:50.563Z,1.79
2017-12-10T08:12:50.664Z,1.88
2017-12-10T08:13:50.356Z,1.88
2017-12-10T08:14:50.667Z,1.88
2017-12-10T08:16:05.285Z,1.93
2017-12-10T08:16:50.665Z,1.83
2017-12-10T08:17:50.663Z,1.84
2017-12-10T08:18:50.673Z,1.9
2017-12-10T08:19:50.711Z,1.83
2017-12-10T08:20:50.699Z,1.86
2017-12-10T08:21:50.702Z,1.76
2017-12-10T08:22:50.734Z,1.8
2017-12-10T08:24:05.411Z,1.84
2017-12-10T08:24:50.753Z,1.84
2017-12-10T08:25:50.768Z,1.87
2017-12-10T08:26:50.800Z,1.93
2017-12-10T08:27:50.806Z,1.88
2017-12-10T08:29:05.480Z,1.86
2017-12-10T08:29:50.833Z,1.95
2017-12-10T08:30:50.591Z,1.88
2017-12-10T08:31:50.909Z,1.81
2017-12-10T08:32:50.624Z,1.88
2017-12-10T08:33:50.975Z,1.83
2017-12-10T08:34:50.902Z,1.98
2017-12-10T08:35:50.923Z,2.05
2017-12-10T08:37:05.583Z,2.05
2017-12-10T08:37:50.935Z,1.99
2017-12-10T08:38:50.956Z,2.03
2017-12-10T08:40:05.722Z,1.98
2017-12-10T08:41:05.635Z,1.86
2017-12-10T08:41:50.976Z,1.83
2017-12-10T08:42:51.036Z,1.9
2017-12-10T08:43:51.025Z,1.91
2017-12-10T08:44:51.033Z,1.81
2017-12-10T08:45:51.070Z,1.95
2017-12-10T08:46:50.788Z,2
2017-12-10T08:47:50.811Z,1.93
2017-12-10T08:48:50.825Z,2
2017-12-10T08:49:50.850Z,2.02
2017-12-10T08:50:51.128Z,1.93
2017-12-10T08:51:51.127Z,2.02
2017-12-10T08:52:51.175Z,2.02
2017-12-10T08:53:51.147Z,2.17
2017-12-10T08:55:05.824Z,2.07
2017-12-10T08:55:50.934Z,2.09
2017-12-10T08:56:51.205Z,2.1
2017-12-10T08:57:50.971Z,2.18
2017-12-10T08:58:50.994Z,2.18
2017-12-10T08:59:51.362Z,2.25
2017-12-10T09:00:51.260Z,2.34
2017-12-10T09:01:51.277Z,2.43
2017-12-10T09:02:51.048Z,2.43
2017-12-10T09:03:51.278Z,2.41
2017-12-10T09:04:51.319Z,2.48
2017-12-10T09:05:51.312Z,2.52
2017-12-10T09:06:51.340Z,2.56
2017-12-10T09:07:51.371Z,2.52
2017-12-10T09:08:51.377Z,2.46
2017-12-10T09:09:51.386Z,2.53
2017-12-10T09:10:51.421Z,2.57
2017-12-10T09:11:51.437Z,2.66
2017-12-10T09:12:51.434Z,2.74
2017-12-10T09:13:51.451Z,2.74
2017-12-10T09:14:51.464Z,2.75
2017-12-10T09:15:51.489Z,2.77
2017-12-10T09:16:51.521Z,2.77
2017-12-10T09:18:06.153Z,2.81
2017-12-10T09:18:51.523Z,2.79
2017-12-10T09:19:51.538Z,2.82
2017-12-10T09:20:51.550Z,2.85
2017-12-10T09:21:51.590Z,2.79
2017-12-10T09:22:51.687Z,2.79
2017-12-10T09:23:51.579Z,2.79
2017-12-10T09:24:51.352Z,2.72
2017-12-10T09:25:51.646Z,2.75
2017-12-10T09:27:06.313Z,2.85
2017-12-10T09:27:51.397Z,2.85
2017-12-10T09:28:51.691Z,2.87
2017-12-10T09:29:51.684Z,2.95
2017-12-10T09:30:51.703Z,2.9
2017-12-10T09:32:06.366Z,2.95
2017-12-10T09:32:51.732Z,2.97
2017-12-10T09:33:51.733Z,3
2017-12-10T09:34:51.737Z,2.99
2017-12-10T09:35:51.778Z,3.02
2017-12-10T09:36:51.544Z,3
2017-12-10T09:37:51.792Z,3.03
2017-12-10T09:38:51.800Z,2.97
2017-12-10T09:39:51.846Z,2.96
2017-12-10T09:40:51.839Z,3.02
2017-12-10T09:41:51.882Z,3.1
2017-12-10T09:43:06.544Z,3.15
2017-12-10T09:43:51.883Z,3.05
2017-12-10T09:44:51.920Z,3.11
2017-12-10T09:45:51.662Z,3.13
2017-12-10T09:46:51.932Z,3.24
2017-12-10T09:48:51.963Z,3.24
2017-12-10T09:49:51.979Z,3.14
2017-12-10T09:50:52.012Z,3.03
2017-12-10T09:51:51.780Z,2.92
2017-12-10T09:52:52.043Z,2.82
2017-12-10T09:53:52.053Z,2.81
2017-12-10T09:54:52.043Z,2.71
2017-12-10T09:55:52.096Z,2.63
2017-12-10T09:56:52.097Z,2.6
2017-12-10T09:58:06.784Z,2.54
2017-12-10T09:59:06.789Z,2.59
2017-12-10T09:59:52.138Z,2.64
2017-12-10T10:00:52.158Z,2.67
2017-12-10T10:01:52.169Z,2.6
2017-12-10T10:02:52.187Z,2.61
2017-12-10T10:03:52.193Z,2.67
2017-12-10T10:04:52.242Z,2.64
2017-12-10T10:05:52.233Z,2.63
2017-12-10T10:06:52.231Z,2.61
2017-12-10T10:07:52.253Z,2.6
2017-12-10T10:08:52.268Z,2.6
2017-12-10T10:09:52.304Z,2.48
2017-12-10T10:10:52.299Z,2.53
2017-12-10T10:11:52.356Z,2.54
2017-12-10T10:12:52.332Z,2.48
2017-12-10T10:13:52.091Z,2.53
2017-12-10T10:15:52.376Z,2.34
2017-12-10T10:16:52.130Z,2.45
2017-12-10T10:17:52.425Z,2.42
2017-12-10T10:18:52.444Z,2.36
2017-12-10T10:19:52.428Z,2.38
2017-12-10T10:21:07.114Z,2.34
2017-12-10T10:21:52.481Z,2.36
2017-12-10T10:22:52.461Z,2.42
2017-12-10T10:24:07.167Z,2.41
2017-12-10T10:24:52.496Z,2.36
2017-12-10T10:25:52.517Z,2.34
2017-12-10T10:26:52.538Z,2.39
2017-12-10T10:27:52.554Z,2.35
2017-12-10T10:28:52.566Z,2.27
2017-12-10T10:30:07.250Z,2.3
2017-12-10T10:30:52.616Z,2.34
2017-12-10T10:31:52.603Z,2.3
2017-12-10T10:32:52.353Z,2.34
2017-12-10T10:33:52.658Z,2.35
2017-12-10T10:34:52.639Z,2.3
2017-12-10T10:35:52.685Z,2.27
2017-12-10T10:36:52.681Z,2.31
2017-12-10T10:37:52.763Z,2.25
2017-12-10T10:38:52.457Z,2.31
2017-12-10T10:39:52.740Z,2.3
2017-12-10T10:40:52.746Z,2.3
2017-12-10T10:41:52.763Z,2.35
2017-12-10T10:42:52.787Z,2.39
2017-12-10T10:43:52.793Z,2.45
2017-12-10T10:44:52.787Z,2.36
2017-12-10T10:46:07.465Z,2.54
2017-12-10T10:46:52.814Z,2.59
2017-12-10T10:47:52.846Z,2.69
2017-12-10T10:48:52.863Z,2.67
2017-12-10T10:49:52.871Z,2.63
2017-12-10T10:50:52.863Z,2.71
2017-12-10T10:51:53.020Z,2.78
2017-12-10T10:52:52.895Z,2.84
2017-12-10T10:53:52.940Z,2.77
2017-12-10T10:54:52.942Z,2.84
2017-12-10T10:55:52.960Z,2.78
2017-12-10T10:56:52.953Z,2.82
2017-12-10T10:57:53.007Z,2.96
2017-12-10T10:58:52.991Z,2.89
2017-12-10T10:59:53.017Z,2.85
2017-12-10T11:00:53.019Z,2.92
2017-12-10T11:02:07.713Z,2.96
2017-12-10T11:02:53.115Z,3
2017-12-10T11:03:52.887Z,2.99
2017-12-10T11:04:53.075Z,3.14
2017-12-10T11:05:52.845Z,3.1
2017-12-10T11:06:53.114Z,3.13
2017-12-10T11:08:07.786Z,3.05
2017-12-10T11:08:53.143Z,2.97
2017-12-10T11:10:53.183Z,3.02
2017-12-10T11:11:53.193Z,3.03
2017-12-10T11:12:53.228Z,2.97
2017-12-10T11:13:53.212Z,2.9
2017-12-10T11:14:53.241Z,2.95
2017-12-10T11:15:53.258Z,2.85
2017-12-10T11:16:53.025Z,2.77
2017-12-10T11:18:07.940Z,2.78
2017-12-10T11:18:53.314Z,2.79
2017-12-10T11:19:53.053Z,2.84
2017-12-10T11:20:53.334Z,2.85
2017-12-10T11:21:53.477Z,2.79
2017-12-10T11:22:53.346Z,2.87
2017-12-10T11:23:53.400Z,2.9
2017-12-10T11:24:53.411Z,2.82
2017-12-10T11:25:53.426Z,2.81
2017-12-10T11:26:53.411Z,2.78
2017-12-10T11:27:53.556Z,2.75
2017-12-10T11:28:53.468Z,2.79
2017-12-10T11:29:53.448Z,2.82
2017-12-10T11:30:53.477Z,2.74
2017-12-10T11:31:53.492Z,2.79
2017-12-10T11:32:52.988Z,2.81
2017-12-10T11:34:08.186Z,2.75
2017-12-10T11:34:53.269Z,2.77
2017-12-10T11:35:53.311Z,2.85
2017-12-10T11:36:53.588Z,2.79
2017-12-10T11:37:53.576Z,2.75
2017-12-10T11:38:53.596Z,2.78
2017-12-10T11:39:53.650Z,2.71
2017-12-10T11:40:53.625Z,2.72
2017-12-10T11:41:53.619Z,2.63
2017-12-10T11:43:53.650Z,2.63
2017-12-10T11:44:53.663Z,2.69
2017-12-10T11:45:53.440Z,2.61
2017-12-10T11:46:53.695Z,2.57
2017-12-10T11:47:53.704Z,2.56
2017-12-10T11:48:53.725Z,2.59
2017-12-10T11:50:08.428Z,2.54
2017-12-10T11:51:53.793Z,2.41
2017-12-10T11:52:53.799Z,2.42
2017-12-10T11:53:53.841Z,2.3
2017-12-10T11:54:53.814Z,2.46
2017-12-10T11:55:53.847Z,2.31
2017-12-10T11:56:53.877Z,2.39
2017-12-10T11:58:08.521Z,2.35
2017-12-10T11:58:53.907Z,2.41
2017-12-10T11:59:53.907Z,2.34
2017-12-10T12:01:53.972Z,2.48
2017-12-10T12:02:53.705Z,2.35
2017-12-10T12:03:53.957Z,2.31
2017-12-10T12:05:08.390Z,2.35
2017-12-10T12:06:08.639Z,2.43
2017-12-10T12:06:53.767Z,2.53
2017-12-10T12:07:54.018Z,2.63
2017-12-10T12:08:54.051Z,2.66
2017-12-10T12:10:08.722Z,2.66
2017-12-10T12:10:54.078Z,2.69
2017-12-10T12:11:54.078Z,2.72
2017-12-10T12:12:53.852Z,2.75
2017-12-10T12:14:54.125Z,2.71
2017-12-10T12:15:53.876Z,2.79
2017-12-10T12:16:53.910Z,2.75
2017-12-10T12:17:54.159Z,2.82
2017-12-10T12:18:54.157Z,2.9
2017-12-10T12:19:54.196Z,2.79
2017-12-10T12:21:08.875Z,2.92
2017-12-10T12:21:54.240Z,2.9
2017-12-10T12:22:54.235Z,2.93
2017-12-10T12:23:54.275Z,2.85
2017-12-10T12:24:54.286Z,2.87
2017-12-10T12:25:54.281Z,2.82
2017-12-10T12:26:54.285Z,2.85
2017-12-10T12:27:54.316Z,2.82
2017-12-10T12:28:54.347Z,2.81
2017-12-10T12:29:54.339Z,2.77
2017-12-10T12:30:54.343Z,2.69
2017-12-10T12:32:54.369Z,2.67
2017-12-10T12:33:54.376Z,2.67
2017-12-10T12:34:54.408Z,2.74
2017-12-10T12:35:54.432Z,2.69
2017-12-10T12:37:09.105Z,2.54
2017-12-10T12:38:09.112Z,2.54
2017-12-10T12:38:54.488Z,2.45
2017-12-10T12:39:54.484Z,2.42
2017-12-10T12:41:09.161Z,2.46
2017-12-10T12:41:54.279Z,2.41
2017-12-10T12:42:54.551Z,2.42
2017-12-10T12:44:54.549Z,2.3
2017-12-10T12:45:54.566Z,2.41
2017-12-10T12:46:54.588Z,2.34
2017-12-10T12:47:54.622Z,2.3
2017-12-10T12:48:54.617Z,2.21
2017-12-10T12:49:54.635Z,2.2
2017-12-10T12:50:54.675Z,2.21
2017-12-10T12:51:54.405Z,2.2
2017-12-10T12:53:54.695Z,2.24
2017-12-10T12:54:54.448Z,2.24
2017-12-10T12:55:54.721Z,2.21
2017-12-10T12:58:09.418Z,2.31
2017-12-10T12:58:54.783Z,2.34
2017-12-10T12:59:54.795Z,2.28
2017-12-10T13:00:54.784Z,2.3
2017-12-10T13:01:54.551Z,2.28
2017-12-10T13:02:54.817Z,2.24
2017-12-10T13:04:54.830Z,2.24
2017-12-10T13:07:54.883Z,2.21
2017-12-10T13:09:09.576Z,2.21
2017-12-10T13:09:54.652Z,2.36
2017-12-10T13:10:54.947Z,2.35
2017-12-10T13:11:54.946Z,2.35
2017-12-10T13:12:54.949Z,2.27
2017-12-10T13:13:55.001Z,2.3
2017-12-10T13:14:55.001Z,2.27
2017-12-10T13:16:54.998Z,2.28
2017-12-10T13:17:55.030Z,2.2
2017-12-10T13:18:55.057Z,2.09
2017-12-10T13:19:55.052Z,2.16
2017-12-10T13:20:55.092Z,2.14
2017-12-10T13:23:55.137Z,2.23
2017-12-10T13:25:09.786Z,2.18
2017-12-10T13:25:55.149Z,2.09
2017-12-10T13:26:55.144Z,2.1
2017-12-10T13:27:55.171Z,2.06
2017-12-10T13:28:55.192Z,2.05
2017-12-10T13:29:55.202Z,1.95
2017-12-10T13:30:54.953Z,1.98
2017-12-10T13:31:55.233Z,2.02
2017-12-10T13:32:55.227Z,2.07
2017-12-10T13:33:55.261Z,2.06
2017-12-10T13:34:55.284Z,2.18
2017-12-10T13:35:55.271Z,2.16
2017-12-10T13:36:55.294Z,2.18
2017-12-10T13:37:55.147Z,2.2
2017-12-10T13:40:09.751Z,2.16
2017-12-10T13:40:55.363Z,2.23
2017-12-10T13:42:10.028Z,2.2
2017-12-10T13:42:55.383Z,2.24
2017-12-10T13:43:55.394Z,2.1
2017-12-10T13:44:55.421Z,2.07
2017-12-10T13:45:55.448Z,2.07
2017-12-10T13:46:55.553Z,2.02
2017-12-10T13:47:55.460Z,2.03
2017-12-10T13:48:55.468Z,2.05
2017-12-10T13:49:55.508Z,1.81
2017-12-10T13:50:55.497Z,1.86
2017-12-10T13:51:55.510Z,1.86
2017-12-10T13:52:55.505Z,1.84
2017-12-10T13:53:55.563Z,1.99
2017-12-10T13:54:55.547Z,1.99
2017-12-10T13:55:55.542Z,1.93
2017-12-10T13:56:55.336Z,1.76
2017-12-10T13:57:55.614Z,1.81
2017-12-10T13:59:10.018Z,1.73
2017-12-10T13:59:55.602Z,1.76
2017-12-10T14:00:55.618Z,1.79
2017-12-10T14:01:55.647Z,1.73
2017-12-10T14:02:55.656Z,1.79
2017-12-10T14:03:55.666Z,1.87
2017-12-10T14:04:55.691Z,1.72
2017-12-10T14:05:55.723Z,1.7
2017-12-10T14:06:55.717Z,1.76
2017-12-10T14:07:55.730Z,1.65
2017-12-10T14:08:55.726Z,1.63
2017-12-10T14:09:55.758Z,1.65
2017-12-10T14:10:55.768Z,1.6
2017-12-10T14:12:10.478Z,1.58
2017-12-10T14:12:55.803Z,1.63